Puna, Argentina
Current Conditions -  °F | °C
As of 8:00 PM on Wednesday 22 Oct 2014 (Local Time) from SANT Reporting Station
Scattered Clouds Scattered Clouds  
Wind Chill: 88°   Ceiling: Unl
Heat Index: 88°   Visibility: 5mi
Dew Point: 57°   Wind: 20mph
Humidity: 35%   Direction: 50°NE
Pressure: 29.85"   Gusts: NA
Location:  27.8°S, 62.52°W
Report Text: SANT 222300Z 05017KT 8000 SCT045 FEW100FEW200 31/14 Q1011
Loading
Personal Weather Stations






























Interactive Weather Map
Tropical Storm Tracking
New forecast layout! Learn more

10-Day Weather Forecast

Advertisements
Track Severe Weather on mobile